Time;durP1;ratioP1;P1;durP2;ratioP2;P2;SDS_P1;SDS_P2;PMS_P1;PMS_P2;Temp;Humidity;BMP_temperature;BMP_pressure;BME280_temperature;BME280_humidity;BME280_pressure;Samples;Min_cycle;Max_cycle;Signal;HPM_P1;HPM_P2
2023/04/13 00:01:48;;;;;;;0.30;0.20;;;6.30;99.90;;;;;;5075767;28;20446;-89
2023/04/13 00:04:15;;;;;;;0.40;0.30;;;6.20;99.90;;;;;;5075316;28;20949;-89
2023/04/13 00:06:45;;;;;;;0.70;0.30;;;6.20;99.90;;;;;;5075705;28;20536;-89
2023/04/13 00:09:13;;;;;;;0.30;0.20;;;6.30;99.90;;;;;;5075770;28;20522;-89
2023/04/13 00:11:39;;;;;;;0.40;0.30;;;6.20;99.90;;;;;;5075421;28;20442;-89
2023/04/13 00:14:06;;;;;;;0.30;0.30;;;6.30;99.90;;;;;;5075558;28;20449;-90
2023/04/13 00:16:33;;;;;;;0.30;0.30;;;6.30;99.90;;;;;;5075842;28;20478;-89
2023/04/13 00:19:02;;;;;;;0.30;0.20;;;6.20;99.90;;;;;;5075334;28;20476;-89
2023/04/13 00:21:32;;;;;;;0.30;0.20;;;6.30;99.90;;;;;;5075780;28;20956;-89
2023/04/13 00:23:59;;;;;;;0.30;0.30;;;6.30;99.90;;;;;;5075697;28;20430;-89
2023/04/13 00:26:26;;;;;;;0.30;0.20;;;6.20;99.90;;;;;;5075221;28;20441;-89
2023/04/13 00:28:52;;;;;;;0.30;0.30;;;6.20;99.90;;;;;;5075581;28;20446;-90
2023/04/13 00:31:19;;;;;;;0.30;0.30;;;6.20;99.90;;;;;;5075396;28;20821;-90
2023/04/13 00:33:46;;;;;;;0.30;0.30;;;6.20;99.90;;;;;;5075316;28;20449;-90
2023/04/13 00:36:14;;;;;;;0.50;0.40;;;6.30;99.90;;;;;;5075110;28;20481;-89
2023/04/13 00:38:43;;;;;;;0.30;0.30;;;6.30;99.90;;;;;;5075147;28;20445;-90
2023/04/13 00:41:11;;;;;;;0.30;0.30;;;6.20;99.90;;;;;;5075841;28;20968;-91
2023/04/13 00:43:38;;;;;;;0.30;0.20;;;6.20;99.90;;;;;;5075608;28;20450;-90
2023/04/13 00:46:05;;;;;;;0.30;0.30;;;6.10;99.90;;;;;;5075564;28;20937;-90
2023/04/13 00:48:33;;;;;;;0.30;0.20;;;6.10;99.90;;;;;;5075656;28;20414;-90
2023/04/13 00:51:01;;;;;;;4.60;0.33;;;6.10;99.90;;;;;;5076164;28;20493;-91
2023/04/13 00:53:30;;;;;;;0.30;0.30;;;6.10;99.90;;;;;;5075743;28;20449;-90
2023/04/13 00:55:58;;;;;;;0.30;0.30;;;5.90;99.90;;;;;;5076073;28;20485;-91
2023/04/13 00:58:26;;;;;;;0.30;0.20;;;6.00;99.90;;;;;;5075466;28;20821;-90
2023/04/13 01:00:53;;;;;;;0.30;0.20;;;6.10;99.90;;;;;;5075353;28;20478;-91
2023/04/13 01:03:20;;;;;;;0.30;0.20;;;6.10;99.90;;;;;;5075854;28;20452;-90
2023/04/13 01:05:54;;;;;;;0.30;0.27;;;6.10;99.90;;;;;;5075383;28;20449;-91
2023/04/13 01:08:29;;;;;;;0.30;0.20;;;6.10;99.90;;;;;;5074556;28;20523;-89
2023/04/13 01:11:04;;;;;;;2.33;0.57;;;6.10;99.90;;;;;;5086753;28;20469;-90
2023/04/13 01:13:39;;;;;;;0.30;0.30;;;6.10;99.90;;;;;;5088534;28;20532;-90
2023/04/13 01:16:12;;;;;;;0.30;0.30;;;6.10;99.90;;;;;;5088747;28;20476;-90
2023/04/13 01:18:42;;;;;;;0.30;0.30;;;6.10;99.90;;;;;;5080111;28;20418;-92
2023/04/13 01:21:13;;;;;;;1.33;0.30;;;6.00;99.90;;;;;;5079791;28;20473;-92
2023/04/13 01:23:50;;;;;;;1.37;0.40;;;6.00;99.90;;;;;;5080152;28;20425;-91
2023/04/13 01:26:21;;;;;;;0.30;0.20;;;6.00;99.90;;;;;;5079337;28;20433;-90
2023/04/13 01:28:50;;;;;;;0.30;0.20;;;5.90;99.90;;;;;;5080076;28;20507;-91
2023/04/13 01:31:18;;;;;;;4.13;0.50;;;5.90;99.90;;;;;;5079609;28;20465;-91
2023/04/13 01:33:46;;;;;;;0.30;0.30;;;5.90;99.90;;;;;;5079598;28;20445;-92
2023/04/13 01:36:14;;;;;;;0.30;0.30;;;5.80;99.90;;;;;;5078004;28;20492;-91
2023/04/13 01:38:41;;;;;;;0.40;0.30;;;5.80;99.90;;;;;;5078304;28;20460;-91
2023/04/13 01:41:08;;;;;;;0.30;0.30;;;5.80;99.90;;;;;;5077922;28;20485;-91
2023/04/13 01:43:36;;;;;;;0.30;0.30;;;5.80;99.90;;;;;;5079028;28;20445;-91
2023/04/13 01:46:08;;;;;;;1.90;0.70;;;5.70;99.90;;;;;;5079095;28;20479;-91
2023/04/13 01:48:42;;;;;;;0.67;0.67;;;5.70;99.90;;;;;;5080472;28;20436;-91
2023/04/13 01:51:13;;;;;;;0.30;0.30;;;5.70;99.90;;;;;;5084259;28;20469;-92
2023/04/13 01:53:43;;;;;;;0.30;0.30;;;5.80;99.90;;;;;;5080876;28;20430;-92
2023/04/13 01:56:11;;;;;;;0.40;0.30;;;5.80;99.90;;;;;;5079991;28;20507;-91
2023/04/13 01:58:39;;;;;;;0.30;0.27;;;5.80;99.90;;;;;;5079696;28;20458;-92
2023/04/13 02:01:07;;;;;;;0.40;0.30;;;5.90;99.90;;;;;;5078404;28;20505;-92
2023/04/13 02:03:34;;;;;;;0.37;0.30;;;5.90;99.90;;;;;;5078935;28;20453;-92
2023/04/13 02:06:02;;;;;;;0.30;0.30;;;5.90;99.90;;;;;;5078648;28;20438;-92
2023/04/13 02:08:30;;;;;;;0.30;0.20;;;5.80;99.90;;;;;;5079250;28;20878;-92
2023/04/13 02:10:56;;;;;;;0.53;0.40;;;5.80;99.90;;;;;;5079476;28;20475;-92
2023/04/13 02:13:24;;;;;;;0.40;0.30;;;5.70;99.90;;;;;;5079168;28;20453;-92
2023/04/13 02:15:51;;;;;;;0.30;0.30;;;5.70;99.90;;;;;;5078997;28;20477;-93
2023/04/13 02:18:19;;;;;;;0.30;0.30;;;5.80;99.90;;;;;;5078869;28;20937;-92
2023/04/13 02:20:45;;;;;;;0.30;0.30;;;5.80;99.90;;;;;;5080019;28;20473;-92
2023/04/13 02:23:14;;;;;;;0.30;0.20;;;5.80;99.90;;;;;;5078716;28;20452;-92
2023/04/13 02:25:42;;;;;;;0.30;0.20;;;5.80;99.90;;;;;;5078794;28;20938;-92
2023/04/13 02:28:10;;;;;;;0.70;0.30;;;5.70;99.90;;;;;;5078258;28;20477;-92
2023/04/13 02:30:37;;;;;;;0.30;0.20;;;5.60;99.90;;;;;;5078174;28;20870;-92
2023/04/13 02:33:05;;;;;;;0.30;0.30;;;5.70;99.90;;;;;;5078225;28;21007;-92
2023/04/13 02:35:37;;;;;;;0.30;0.30;;;5.60;99.90;;;;;;5078178;28;20852;-92
2023/04/13 02:38:05;;;;;;;0.30;0.30;;;5.60;99.90;;;;;;5078951;28;20786;-92
2023/04/13 02:40:32;;;;;;;0.30;0.30;;;5.50;99.90;;;;;;5078376;28;21014;-92
2023/04/13 02:42:58;;;;;;;0.80;0.40;;;5.50;99.90;;;;;;5078074;28;20952;-92
2023/04/13 02:45:26;;;;;;;0.30;0.30;;;5.40;99.90;;;;;;5078421;28;20430;-92
2023/04/13 02:47:52;;;;;;;0.30;0.20;;;5.40;99.90;;;;;;5078769;28;20473;-92
2023/04/13 02:50:19;;;;;;;0.30;0.20;;;5.40;99.90;;;;;;5078632;28;20583;-93
2023/04/13 02:52:47;;;;;;;1.53;0.60;;;5.30;99.90;;;;;;5079141;28;20479;-92
2023/04/13 02:55:14;;;;;;;0.33;0.30;;;5.40;99.90;;;;;;5078623;28;20452;-93
2023/04/13 02:57:42;;;;;;;0.30;0.27;;;5.40;99.90;;;;;;5079409;28;21023;-92
2023/04/13 03:00:10;;;;;;;0.30;0.27;;;5.30;99.90;;;;;;5079587;28;20466;-92
2023/04/13 03:02:37;;;;;;;0.30;0.30;;;5.30;99.90;;;;;;5079122;28;20445;-93
2023/04/13 03:05:05;;;;;;;0.40;0.30;;;5.20;99.90;;;;;;5078537;28;20449;-93
2023/04/13 03:07:32;;;;;;;0.30;0.30;;;5.20;99.90;;;;;;5078259;28;20452;-92
2023/04/13 03:10:02;;;;;;;0.30;0.30;;;5.20;99.90;;;;;;5078233;28;20505;-92
2023/04/13 03:12:30;;;;;;;0.30;0.30;;;5.20;99.90;;;;;;5078719;28;20466;-92
2023/04/13 03:14:56;;;;;;;1.77;0.40;;;5.30;99.90;;;;;;5078282;28;20449;-92
2023/04/13 03:17:24;;;;;;;0.30;0.30;;;5.20;99.90;;;;;;5078252;28;20477;-92
2023/04/13 03:19:50;;;;;;;0.30;0.27;;;5.20;99.90;;;;;;5077501;28;20473;-92
2023/04/13 03:22:17;;;;;;;0.40;0.40;;;5.10;99.90;;;;;;5078446;28;20477;-92
2023/04/13 03:24:44;;;;;;;0.30;0.30;;;5.10;99.90;;;;;;5077142;28;20482;-93
2023/04/13 03:27:12;;;;;;;0.40;0.37;;;5.00;99.90;;;;;;5077271;28;20445;-93
2023/04/13 03:29:39;;;;;;;0.30;0.30;;;5.00;99.90;;;;;;5076158;28;20457;-93
2023/04/13 03:32:06;;;;;;;0.30;0.30;;;5.00;99.90;;;;;;5075778;28;20843;-92
2023/04/13 03:34:32;;;;;;;0.30;0.30;;;5.00;99.90;;;;;;5075597;28;20449;-91
2023/04/13 03:36:59;;;;;;;0.30;0.20;;;5.10;99.90;;;;;;5083164;28;20875;-91
2023/04/13 03:39:26;;;;;;;0.40;0.33;;;5.10;99.90;;;;;;5083407;28;20460;-92
2023/04/13 03:41:53;;;;;;;0.30;0.30;;;5.10;99.90;;;;;;5086705;28;20453;-92
2023/04/13 03:44:21;;;;;;;2.93;0.80;;;5.10;99.90;;;;;;5090544;28;20434;-93
2023/04/13 03:46:48;;;;;;;0.30;0.30;;;5.10;99.90;;;;;;5089091;28;20481;-92
2023/04/13 03:49:15;;;;;;;0.30;0.20;;;5.10;99.90;;;;;;5088888;28;20450;-92
2023/04/13 03:51:42;;;;;;;0.30;0.23;;;5.00;99.90;;;;;;5096821;28;20437;-93
2023/04/13 03:54:08;;;;;;;0.40;0.30;;;5.10;99.90;;;;;;5089079;28;20456;-93
2023/04/13 03:56:35;;;;;;;0.40;0.40;;;5.10;99.90;;;;;;5077608;28;20477;-93
2023/04/13 03:59:02;;;;;;;0.30;0.20;;;5.20;99.90;;;;;;5078284;28;20441;-93
2023/04/13 04:01:30;;;;;;;0.50;0.30;;;5.20;99.90;;;;;;5077168;28;20480;-93
2023/04/13 04:03:57;;;;;;;0.50;0.50;;;5.40;99.90;;;;;;5076420;28;20795;-93
2023/04/13 04:06:25;;;;;;;0.30;0.30;;;5.40;99.90;;;;;;5077090;28;20453;-92
2023/04/13 04:08:53;;;;;;;0.30;0.30;;;5.40;99.90;;;;;;5077182;28;20458;-92
2023/04/13 04:11:21;;;;;;;1.33;0.80;;;5.50;99.90;;;;;;5076513;28;20469;-93
2023/04/13 04:13:47;;;;;;;0.30;0.30;;;5.50;99.90;;;;;;5076632;28;20854;-93
2023/04/13 04:16:15;;;;;;;0.40;0.30;;;5.50;99.90;;;;;;5076870;28;20486;-93
2023/04/13 04:18:43;;;;;;;0.30;0.30;;;5.50;99.90;;;;;;5076177;28;20460;-93
2023/04/13 04:21:11;;;;;;;0.40;0.40;;;5.60;99.90;;;;;;5076359;28;20466;-93
2023/04/13 04:23:38;;;;;;;4.83;0.50;;;5.60;99.90;;;;;;5077104;28;20445;-94
2023/04/13 04:26:06;;;;;;;0.30;0.30;;;5.60;99.90;;;;;;5076855;28;20961;-92
2023/04/13 04:28:37;;;;;;;1.23;0.80;;;5.60;99.90;;;;;;5076758;28;20945;-93
2023/04/13 04:31:05;;;;;;;0.30;0.30;;;5.60;99.90;;;;;;5077115;28;20473;-93
2023/04/13 04:33:32;;;;;;;0.30;0.30;;;5.60;99.90;;;;;;5076406;28;20470;-93
2023/04/13 04:36:00;;;;;;;0.30;0.20;;;5.70;99.90;;;;;;5076304;28;20960;-93
2023/04/13 04:38:29;;;;;;;0.30;0.30;;;5.70;99.90;;;;;;5076824;28;20446;-93
2023/04/13 04:40:56;;;;;;;0.30;0.20;;;5.70;99.90;;;;;;5077044;28;20478;-93
2023/04/13 04:43:25;;;;;;;0.30;0.23;;;5.70;99.90;;;;;;5076407;28;20886;-93
2023/04/13 04:45:56;;;;;;;0.30;0.20;;;5.70;99.90;;;;;;5076821;28;20441;-93
2023/04/13 04:48:25;;;;;;;0.57;0.30;;;5.70;99.90;;;;;;5076369;28;20465;-93
2023/04/13 04:50:53;;;;;;;0.40;0.27;;;5.70;99.90;;;;;;5077344;28;20507;-93
2023/04/13 04:53:21;;;;;;;0.30;0.30;;;5.70;99.90;;;;;;5075758;28;20460;-93
2023/04/13 04:55:47;;;;;;;0.50;0.50;;;5.70;99.90;;;;;;5080529;28;20449;-93
2023/04/13 04:58:14;;;;;;;0.30;0.23;;;5.70;99.90;;;;;;5080528;28;20489;-93
2023/04/13 05:00:41;;;;;;;0.30;0.20;;;5.60;99.90;;;;;;5079664;28;20811;-92
2023/04/13 05:03:08;;;;;;;0.30;0.20;;;5.70;99.90;;;;;;5078810;28;20449;-92
2023/04/13 05:05:35;;;;;;;0.30;0.30;;;5.70;99.90;;;;;;5080630;28;20526;-93
2023/04/13 05:08:01;;;;;;;0.30;0.30;;;5.70;99.90;;;;;;5081397;28;20503;-93
2023/04/13 05:10:30;;;;;;;0.40;0.30;;;5.80;99.90;;;;;;5081501;28;20465;-92
2023/04/13 05:12:57;;;;;;;2.73;0.67;;;5.80;99.90;;;;;;5081092;28;20457;-93
2023/04/13 05:15:23;;;;;;;0.57;0.57;;;5.80;99.90;;;;;;5080745;28;20459;-92
2023/04/13 05:17:50;;;;;;;0.30;0.20;;;5.80;99.90;;;;;;5089572;28;20516;-93
2023/04/13 05:20:18;;;;;;;0.40;0.30;;;5.80;99.90;;;;;;5080442;28;20477;-92
2023/04/13 05:22:45;;;;;;;0.30;0.20;;;5.90;99.90;;;;;;5079907;28;20456;-93
2023/04/13 05:25:12;;;;;;;0.30;0.30;;;5.90;99.90;;;;;;5081492;28;20513;-92
2023/04/13 05:27:40;;;;;;;0.30;0.20;;;5.90;99.90;;;;;;5080744;28;20441;-93
2023/04/13 05:30:08;;;;;;;0.30;0.30;;;5.80;99.90;;;;;;5080624;28;20508;-93
2023/04/13 05:32:36;;;;;;;0.30;0.30;;;5.90;99.90;;;;;;5080259;28;20453;-93
2023/04/13 05:35:04;;;;;;;0.30;0.20;;;5.80;99.90;;;;;;5079632;28;20487;-94
2023/04/13 05:37:31;;;;;;;0.40;0.30;;;5.80;99.90;;;;;;5080010;28;20477;-93
2023/04/13 05:39:58;;;;;;;0.30;0.30;;;5.80;99.90;;;;;;5080486;28;20472;-93
2023/04/13 05:42:25;;;;;;;0.30;0.30;;;5.90;99.90;;;;;;5078794;28;20860;-93
2023/04/13 05:44:53;;;;;;;0.30;0.30;;;5.90;99.90;;;;;;5077987;28;20445;-93
2023/04/13 05:47:22;;;;;;;0.30;0.30;;;6.00;99.90;;;;;;5076936;28;20481;-94
2023/04/13 05:49:49;;;;;;;0.30;0.30;;;6.00;99.90;;;;;;5076007;28;20497;-93
2023/04/13 05:52:16;;;;;;;0.30;0.20;;;6.00;99.90;;;;;;5076254;28;20445;-93
2023/04/13 05:54:43;;;;;;;0.50;0.50;;;6.10;99.90;;;;;;5075883;28;20941;-92
2023/04/13 05:57:09;;;;;;;0.40;0.40;;;6.20;99.90;;;;;;5076046;28;20984;-93
2023/04/13 05:59:37;;;;;;;0.33;0.27;;;6.30;99.90;;;;;;5076592;28;20480;-93
2023/04/13 06:02:05;;;;;;;0.30;0.30;;;6.30;99.90;;;;;;5075659;28;20528;-93
2023/04/13 06:04:32;;;;;;;0.40;0.40;;;6.40;99.90;;;;;;5075264;28;20501;-93
2023/04/13 06:06:59;;;;;;;0.40;0.30;;;6.60;99.90;;;;;;5076054;28;20488;-93
2023/04/13 06:09:27;;;;;;;0.70;0.40;;;6.70;99.90;;;;;;5075528;28;20429;-93
2023/04/13 06:11:54;;;;;;;0.30;0.30;;;6.80;99.90;;;;;;5076051;28;20488;-93
2023/04/13 06:14:21;;;;;;;0.40;0.30;;;6.80;99.90;;;;;;5075936;28;20484;-93
2023/04/13 06:16:47;;;;;;;0.30;0.30;;;6.90;99.90;;;;;;5075776;28;20520;-93
2023/04/13 06:19:15;;;;;;;0.40;0.30;;;7.20;99.90;;;;;;5075844;28;20870;-94
2023/04/13 06:21:42;;;;;;;0.50;0.40;;;7.40;99.90;;;;;;5075841;28;20446;-92
2023/04/13 06:24:09;;;;;;;0.30;0.30;;;7.50;99.90;;;;;;5075717;28;20453;-93
2023/04/13 06:26:36;;;;;;;0.30;0.30;;;7.40;99.90;;;;;;5075844;28;20457;-94
2023/04/13 06:29:03;;;;;;;8.03;0.40;;;7.40;99.90;;;;;;5075361;28;20445;-94
2023/04/13 06:31:29;;;;;;;0.30;0.30;;;7.40;99.90;;;;;;5075325;28;20456;-93
2023/04/13 06:33:56;;;;;;;0.30;0.30;;;7.30;99.90;;;;;;5075951;28;20944;-93
2023/04/13 06:36:24;;;;;;;0.30;0.30;;;7.30;99.90;;;;;;5075473;28;20453;-93
2023/04/13 06:38:51;;;;;;;0.30;0.20;;;7.20;99.90;;;;;;5075213;28;20481;-93
2023/04/13 06:41:18;;;;;;;0.30;0.30;;;7.30;99.90;;;;;;5075313;28;20499;-93
2023/04/13 06:43:45;;;;;;;0.30;0.30;;;7.40;99.90;;;;;;5075365;28;20824;-93
2023/04/13 06:48:43;;;;;;;3.50;0.43;;;7.40;99.90;;;;;;5133236;27;21133;-93
2023/04/13 06:51:10;;;;;;;0.60;0.40;;;8.60;99.90;;;;;;5132780;28;20446;-94
2023/04/13 06:53:37;;;;;;;0.30;0.20;;;8.90;99.90;;;;;;5132922;27;20538;-93
2023/04/13 06:56:05;;;;;;;0.30;0.30;;;9.20;99.90;;;;;;5132751;27;20934;-94
2023/04/13 06:58:31;;;;;;;0.30;0.30;;;9.40;99.90;;;;;;5133014;27;20431;-93
2023/04/13 07:00:58;;;;;;;2.50;0.43;;;9.40;99.90;;;;;;5132747;27;20469;-93
2023/04/13 07:03:25;;;;;;;0.33;0.30;;;9.40;99.90;;;;;;5132704;27;20447;-94
2023/04/13 07:05:53;;;;;;;0.40;0.30;;;9.30;99.90;;;;;;5132780;27;20454;-93
2023/04/13 07:08:20;;;;;;;0.30;0.30;;;9.30;99.90;;;;;;5132522;27;20482;-93
2023/04/13 07:10:47;;;;;;;0.30;0.30;;;8.80;99.90;;;;;;5132485;27;20463;-94
2023/04/13 07:13:13;;;;;;;0.30;0.30;;;8.60;99.90;;;;;;5132856;27;20814;-94
2023/04/13 07:15:41;;;;;;;0.30;0.30;;;8.40;99.90;;;;;;5132606;27;20435;-94
2023/04/13 07:18:08;;;;;;;0.70;0.30;;;8.40;99.90;;;;;;5132732;27;20431;-94
2023/04/13 07:20:37;;;;;;;0.30;0.30;;;8.60;99.90;;;;;;5132459;27;20470;-94
2023/04/13 07:23:05;;;;;;;0.30;0.30;;;8.60;99.90;;;;;;5145723;27;20443;-92
2023/04/13 07:25:34;;;;;;;0.40;0.40;;;8.60;99.90;;;;;;5141660;27;20926;-94
2023/04/13 07:28:01;;;;;;;0.40;0.30;;;8.60;99.90;;;;;;5132860;27;20889;-94
2023/04/13 07:30:27;;;;;;;0.60;0.30;;;8.50;99.90;;;;;;5132626;27;20455;-94
2023/04/13 07:32:54;;;;;;;0.30;0.30;;;8.50;99.90;;;;;;5132449;27;20442;-94
2023/04/13 07:35:21;;;;;;;0.30;0.30;;;8.60;99.90;;;;;;5132398;27;20490;-94
2023/04/13 07:37:48;;;;;;;1.37;0.40;;;8.40;99.90;;;;;;5132070;27;20439;-95
2023/04/13 07:40:18;;;;;;;1.47;0.40;;;8.30;99.90;;;;;;5132237;27;20506;-94
2023/04/13 07:42:46;;;;;;;0.30;0.30;;;8.30;99.90;;;;;;5132001;27;20458;-94
2023/04/13 07:45:14;;;;;;;0.30;0.30;;;8.50;99.90;;;;;;5132025;27;20453;-94
2023/04/13 07:47:43;;;;;;;0.40;0.30;;;8.40;99.90;;;;;;5131589;27;20485;-94
2023/04/13 07:50:10;;;;;;;2.93;0.30;;;8.50;99.90;;;;;;5131700;27;20485;-95
2023/04/13 07:52:37;;;;;;;0.30;0.20;;;8.70;99.90;;;;;;5131776;27;20439;-94
2023/04/13 07:55:05;;;;;;;0.30;0.30;;;8.80;99.90;;;;;;5131923;27;20440;-94
2023/04/13 07:57:34;;;;;;;1.60;0.30;;;9.10;99.90;;;;;;5131820;27;20450;-95
2023/04/13 08:00:00;;;;;;;0.40;0.40;;;9.10;99.90;;;;;;5118504;27;20471;-94
2023/04/13 08:02:27;;;;;;;3.60;0.67;;;9.10;99.90;;;;;;5118580;28;20452;-94
2023/04/13 08:04:54;;;;;;;0.50;0.40;;;9.30;99.90;;;;;;5117405;28;20448;-93
2023/04/13 08:07:21;;;;;;;5.60;0.50;;;9.20;99.90;;;;;;5117741;28;20472;-94
2023/04/13 08:09:51;;;;;;;0.63;0.63;;;9.30;99.90;;;;;;5117871;27;20463;-95
2023/04/13 08:12:18;;;;;;;0.40;0.30;;;9.40;99.90;;;;;;5120707;28;20455;-94
2023/04/13 08:14:46;;;;;;;0.70;0.40;;;9.40;99.90;;;;;;5119044;28;20467;-94
2023/04/13 08:17:12;;;;;;;2.97;0.37;;;9.50;99.90;;;;;;5118253;28;20444;-94
2023/04/13 08:19:39;;;;;;;2.73;0.40;;;9.70;99.90;;;;;;5118068;28;20457;-94
2023/04/13 08:22:06;;;;;;;0.50;0.30;;;9.70;99.90;;;;;;5118076;28;21004;-94
2023/04/13 08:24:35;;;;;;;1.40;0.50;;;9.90;99.90;;;;;;5117702;28;20451;-93
2023/04/13 08:27:02;;;;;;;1.90;0.50;;;9.90;99.90;;;;;;5117610;28;20448;-93
2023/04/13 08:29:29;;;;;;;1.93;0.43;;;9.80;99.90;;;;;;5120056;28;20811;-91
2023/04/13 08:31:57;;;;;;;0.40;0.30;;;9.70;99.90;;;;;;5117582;28;20451;-91
2023/04/13 08:34:24;;;;;;;1.23;0.40;;;9.60;99.90;;;;;;5117746;28;20452;-91
2023/04/13 08:36:51;;;;;;;0.30;0.30;;;9.70;99.90;;;;;;5117808;27;20994;-91
2023/04/13 08:39:18;;;;;;;0.70;0.30;;;9.70;99.90;;;;;;5117432;28;20454;-91
2023/04/13 08:41:46;;;;;;;5.00;0.57;;;9.70;99.90;;;;;;5117561;28;20478;-92
2023/04/13 08:44:14;;;;;;;1.47;0.30;;;9.70;99.90;;;;;;5117223;28;20483;-92
2023/04/13 08:46:44;;;;;;;0.40;0.30;;;9.90;99.90;;;;;;5116997;28;20479;-91
2023/04/13 08:49:13;;;;;;;0.30;0.30;;;10.10;99.90;;;;;;5116575;28;20478;-91
2023/04/13 08:51:44;;;;;;;0.83;0.60;;;10.10;99.90;;;;;;5117191;28;20444;-91
2023/04/13 08:54:13;;;;;;;0.40;0.30;;;10.10;99.90;;;;;;5117708;28;20896;-92
2023/04/13 08:56:44;;;;;;;0.80;0.40;;;10.10;99.90;;;;;;5117499;28;20428;-92
2023/04/13 08:59:14;;;;;;;0.30;0.30;;;10.10;99.90;;;;;;5117385;28;20934;-91
2023/04/13 09:01:41;;;;;;;0.40;0.40;;;10.20;99.90;;;;;;5120082;28;20448;-91
2023/04/13 09:04:09;;;;;;;0.47;0.37;;;9.90;99.90;;;;;;5126288;28;20447;-92
2023/04/13 09:06:39;;;;;;;0.77;0.40;;;9.80;99.90;;;;;;5117807;28;20919;-91
2023/04/13 09:09:08;;;;;;;0.40;0.30;;;9.60;99.90;;;;;;5116781;28;20463;-91
2023/04/13 09:11:35;;;;;;;0.30;0.20;;;9.50;99.90;;;;;;5115425;28;20479;-91
2023/04/13 09:14:02;;;;;;;1.90;0.50;;;9.60;99.90;;;;;;5125988;27;20443;-91
2023/04/13 09:16:30;;;;;;;0.30;0.30;;;9.50;99.90;;;;;;5122147;28;20432;-91
2023/04/13 09:18:58;;;;;;;0.30;0.20;;;9.50;99.90;;;;;;5117423;28;20837;-92
2023/04/13 09:21:36;;;;;;;6.90;0.40;;;9.80;99.90;;;;;;5116389;28;20476;-92
2023/04/13 09:24:06;;;;;;;0.50;0.50;;;10.30;99.90;;;;;;5116039;28;20420;-92
2023/04/13 09:26:40;;;;;;;2.60;0.63;;;11.20;99.90;;;;;;5116325;28;20961;-92
2023/04/13 09:29:11;;;;;;;0.57;0.57;;;11.80;99.90;;;;;;5116178;28;20520;-92
2023/04/13 09:31:38;;;;;;;0.30;0.30;;;12.00;99.90;;;;;;5116176;28;20830;-92
2023/04/13 09:34:05;;;;;;;0.40;0.40;;;12.10;99.90;;;;;;5116034;27;20483;-92
2023/04/13 09:36:32;;;;;;;0.50;0.37;;;12.40;99.90;;;;;;5116088;28;20467;-93
2023/04/13 09:39:24;;;;;;;0.40;0.30;;;12.70;99.90;;;;;;5116103;28;20447;-92
2023/04/13 09:41:51;;;;;;;0.30;0.30;;;13.70;99.90;;;;;;5116200;28;20439;-93
2023/04/13 09:44:21;;;;;;;0.40;0.40;;;14.10;99.90;;;;;;5116023;28;20542;-92
2023/04/13 09:46:57;;;;;;;1.37;0.57;;;13.80;99.90;;;;;;5115762;28;20494;-92
2023/04/13 09:49:25;;;;;;;0.50;0.40;;;13.30;99.90;;;;;;5116416;28;20491;-90
2023/04/13 09:51:52;;;;;;;2.83;0.50;;;12.80;99.90;;;;;;5119577;28;20448;-92
2023/04/13 09:54:22;;;;;;;0.80;0.47;;;12.50;99.90;;;;;;5116126;28;20439;-92
2023/04/13 09:56:53;;;;;;;0.63;0.50;;;12.30;99.90;;;;;;5116148;28;20443;-92
2023/04/13 09:59:21;;;;;;;0.50;0.30;;;12.10;99.90;;;;;;5115822;28;20485;-92
2023/04/13 10:01:48;;;;;;;0.40;0.30;;;11.90;99.90;;;;;;5115925;28;20539;-92
2023/04/13 10:04:16;;;;;;;0.40;0.30;;;11.70;99.90;;;;;;5115944;28;20985;-93
2023/04/13 10:06:43;;;;;;;0.37;0.30;;;11.50;99.90;;;;;;5115921;28;20424;-93
2023/04/13 10:09:10;;;;;;;1.40;0.30;;;11.40;99.90;;;;;;5115913;28;20596;-92
2023/04/13 10:11:44;;;;;;;0.50;0.30;;;11.20;99.90;;;;;;5114754;28;20545;-88
2023/04/13 10:14:14;;;;;;;0.43;0.43;;;11.00;99.90;;;;;;5115351;28;20951;-94
2023/04/13 10:17:07;;;;;;;0.40;0.30;;;10.90;99.90;;;;;;5115251;28;20561;-89
2023/04/13 10:19:39;;;;;;;0.50;0.50;;;10.80;99.90;;;;;;5114827;28;21018;-92
2023/04/13 10:22:07;;;;;;;3.67;0.60;;;10.80;99.90;;;;;;5114750;28;20946;-91
2023/04/13 10:24:33;;;;;;;0.40;0.40;;;10.80;99.90;;;;;;5115334;28;20448;-92
2023/04/13 10:27:11;;;;;;;0.40;0.40;;;10.80;99.90;;;;;;5115437;28;20454;-92
2023/04/13 10:29:38;;;;;;;3.30;0.40;;;11.10;99.90;;;;;;5114874;28;20479;-92
2023/04/13 10:32:05;;;;;;;0.50;0.37;;;11.60;99.90;;;;;;5115242;28;20450;-93
2023/04/13 10:34:34;;;;;;;0.30;0.20;;;12.00;99.90;;;;;;5115375;28;20463;-92
2023/04/13 10:37:05;;;;;;;0.40;0.30;;;12.20;99.90;;;;;;5115209;28;20452;-92
2023/04/13 10:39:33;;;;;;;0.40;0.30;;;12.60;99.90;;;;;;5114932;28;20428;-92
2023/04/13 10:42:02;;;;;;;0.30;0.30;;;13.50;99.90;;;;;;5115210;28;20494;-92
2023/04/13 10:44:40;;;;;;;2.20;0.50;;;15.00;99.90;;;;;;5115027;28;20962;-92
2023/04/13 10:47:07;;;;;;;2.43;0.60;;;16.40;99.90;;;;;;5114504;28;21055;-92
2023/04/13 10:49:35;;;;;;;1.13;0.40;;;17.20;99.90;;;;;;5114885;28;21057;-92
2023/04/13 10:52:02;;;;;;;0.40;0.40;;;17.10;98.90;;;;;;5115107;28;20452;-92
2023/04/13 10:54:29;;;;;;;2.40;0.50;;;16.50;97.40;;;;;;5114833;28;20448;-93
2023/04/13 10:56:57;;;;;;;1.70;0.40;;;16.20;97.50;;;;;;5114617;28;20965;-92
2023/04/13 10:59:52;;;;;;;0.50;0.30;;;15.70;97.80;;;;;;5115112;28;20435;-92
2023/04/13 11:02:19;;;;;;;0.93;0.30;;;15.00;97.80;;;;;;5115160;28;20431;-92
2023/04/13 11:04:48;;;;;;;0.40;0.33;;;14.20;97.20;;;;;;5127696;28;20510;-91
2023/04/13 11:07:16;;;;;;;0.30;0.30;;;13.50;99.20;;;;;;5122089;28;20451;-93
2023/04/13 11:09:44;;;;;;;1.27;0.40;;;13.20;99.90;;;;;;5114801;28;20518;-91
2023/04/13 11:12:12;;;;;;;1.37;0.40;;;13.00;99.90;;;;;;5114535;28;20455;-92
2023/04/13 11:14:38;;;;;;;0.50;0.40;;;12.90;99.90;;;;;;5114403;28;20942;-92
2023/04/13 11:17:12;;;;;;;0.50;0.50;;;12.90;99.90;;;;;;5117829;28;20470;-93
2023/04/13 11:19:47;;;;;;;4.40;0.40;;;13.10;99.90;;;;;;5118145;28;20462;-91
2023/04/13 11:22:17;;;;;;;0.30;0.30;;;13.10;99.90;;;;;;5115129;28;20459;-92
2023/04/13 11:24:46;;;;;;;2.10;0.30;;;13.20;99.90;;;;;;5114790;28;20436;-92
2023/04/13 11:27:17;;;;;;;0.40;0.40;;;13.20;99.90;;;;;;5114857;28;20918;-91
2023/04/13 11:29:44;;;;;;;0.57;0.30;;;12.80;99.90;;;;;;5114662;28;20532;-90
2023/04/13 11:32:18;;;;;;;0.40;0.30;;;12.40;99.90;;;;;;5114399;28;20939;-90
2023/04/13 11:34:45;;;;;;;0.50;0.50;;;11.90;99.90;;;;;;5117001;28;20439;-89
2023/04/13 11:37:12;;;;;;;1.93;1.80;;;11.30;99.90;;;;;;5118368;28;20444;-89
2023/04/13 11:39:42;;;;;;;1.30;0.40;;;11.00;99.90;;;;;;5117848;28;20977;-88
2023/04/13 11:42:09;;;;;;;0.60;0.50;;;10.70;99.90;;;;;;5118010;28;20447;-87
2023/04/13 11:44:37;;;;;;;0.60;0.30;;;10.60;99.90;;;;;;5117714;28;20905;-87
2023/04/13 11:47:05;;;;;;;0.90;0.30;;;10.80;99.90;;;;;;5117454;28;20532;-88
2023/04/13 11:49:33;;;;;;;3.43;0.40;;;11.10;99.90;;;;;;5117336;28;21002;-88
2023/04/13 11:52:01;;;;;;;0.97;0.30;;;11.50;99.90;;;;;;5117578;28;20455;-88
2023/04/13 11:54:29;;;;;;;1.17;0.40;;;11.70;99.90;;;;;;5117581;28;20475;-88
2023/04/13 11:56:56;;;;;;;0.30;0.30;;;11.90;99.90;;;;;;5117885;28;20447;-89
2023/04/13 11:59:24;;;;;;;0.47;0.47;;;12.10;99.90;;;;;;5117601;28;20447;-89
2023/04/13 12:01:51;;;;;;;0.40;0.30;;;12.30;99.90;;;;;;5117809;28;20959;-90
2023/04/13 12:04:18;;;;;;;0.30;0.30;;;12.50;99.90;;;;;;5117591;28;20432;-90
2023/04/13 12:06:46;;;;;;;0.40;0.30;;;12.60;99.90;;;;;;5117485;28;20444;-89
2023/04/13 12:09:13;;;;;;;0.70;0.30;;;12.90;99.90;;;;;;5117696;28;20578;-90
2023/04/13 12:11:42;;;;;;;0.47;0.47;;;13.20;99.90;;;;;;5117746;28;20443;-87
2023/04/13 12:14:18;;;;;;;0.60;0.37;;;13.20;99.90;;;;;;5121818;28;20843;-89
2023/04/13 12:16:49;;;;;;;0.30;0.30;;;13.40;99.90;;;;;;5117728;28;20416;-90
2023/04/13 12:19:22;;;;;;;0.30;0.30;;;13.40;99.90;;;;;;5117756;28;20843;-89
2023/04/13 12:21:54;;;;;;;0.30;0.20;;;13.60;99.90;;;;;;5117259;28;20432;-90
2023/04/13 12:24:31;;;;;;;0.43;0.40;;;13.40;99.90;;;;;;5117891;28;20948;-90
2023/04/13 12:27:02;;;;;;;0.40;0.30;;;13.20;99.90;;;;;;5117495;28;20914;-90
2023/04/13 12:29:29;;;;;;;0.30;0.30;;;13.40;99.90;;;;;;5116970;28;20467;-90
2023/04/13 12:32:00;;;;;;;0.93;0.30;;;13.60;99.90;;;;;;5117118;28;20444;-91
2023/04/13 12:34:27;;;;;;;0.30;0.30;;;13.40;99.90;;;;;;5117810;28;20479;-91
2023/04/13 12:36:56;;;;;;;2.00;0.30;;;13.40;99.90;;;;;;5117775;27;20448;-91
2023/04/13 12:39:23;;;;;;;0.37;0.30;;;13.30;99.90;;;;;;5117386;28;20572;-91
2023/04/13 12:41:50;;;;;;;0.30;0.20;;;13.30;99.90;;;;;;5117150;28;20451;-90
2023/04/13 12:44:16;;;;;;;0.30;0.30;;;13.30;99.90;;;;;;5117169;27;20447;-91
2023/04/13 12:46:43;;;;;;;1.80;0.30;;;13.20;99.90;;;;;;5116929;28;20487;-91
2023/04/13 12:49:10;;;;;;;10.40;0.40;;;13.20;99.90;;;;;;5117272;28;20463;-91
2023/04/13 12:51:37;;;;;;;0.30;0.30;;;13.10;99.90;;;;;;5117219;28;20467;-91
2023/04/13 12:54:10;;;;;;;0.40;0.30;;;13.00;99.90;;;;;;5119145;28;20923;-91
2023/04/13 12:56:36;;;;;;;0.40;0.30;;;12.90;99.90;;;;;;5125947;28;20481;-90
2023/04/13 12:59:04;;;;;;;0.40;0.30;;;12.90;99.90;;;;;;5117248;28;20926;-91
2023/04/13 13:01:31;;;;;;;0.40;0.40;;;12.60;99.90;;;;;;5116977;28;20474;-91